Time;durP1;ratioP1;P1;durP2;ratioP2;P2;SDS_P1;SDS_P2;PMS_P1;PMS_P2;Temp;Humidity;BMP_temperature;BMP_pressure;BME280_temperature;BME280_humidity;BME280_pressure;Samples;Min_cycle;Max_cycle;Signal;HPM_P1;HPM_P2
2022/11/02 00:00:51;;;;;;;9.95;6.85;;;;;;;15.73;64.95;101541.19;4936403;28;99209;-71
2022/11/02 00:03:18;;;;;;;8.35;5.82;;;;;;;15.80;64.59;101537.34;4934977;28;96823;-71
2022/11/02 00:05:45;;;;;;;15.82;6.10;;;;;;;15.78;63.95;101536.53;4934306;28;96748;-73
2022/11/02 00:08:13;;;;;;;9.85;6.07;;;;;;;15.82;63.92;101548.75;4930695;28;99319;-71
2022/11/02 00:10:39;;;;;;;10.73;6.20;;;;;;;15.90;63.75;101531.50;4930304;28;99409;-70
2022/11/02 00:13:06;;;;;;;9.80;5.70;;;;;;;15.98;63.20;101541.81;4934737;28;97871;-71
2022/11/02 00:15:36;;;;;;;9.57;5.75;;;;;;;16.03;63.15;101542.47;4928883;28;96996;-71
2022/11/02 00:18:04;;;;;;;11.30;5.57;;;;;;;16.21;62.63;101540.78;4930644;28;98942;-71
2022/11/02 00:20:31;;;;;;;9.43;5.53;;;;;;;15.94;63.31;101534.91;4933373;28;100870;-71
2022/11/02 00:23:01;;;;;;;9.55;5.75;;;;;;;16.02;62.89;101538.06;4933034;28;97473;-71
2022/11/02 00:25:30;;;;;;;10.43;5.30;;;;;;;15.92;63.17;101539.44;4934590;28;96882;-71
2022/11/02 00:27:56;;;;;;;9.25;5.57;;;;;;;15.62;63.92;101541.66;4932403;28;99301;-72
2022/11/02 00:30:23;;;;;;;8.45;4.93;;;;;;;15.75;63.74;101540.19;4932974;28;98127;-71
2022/11/02 00:32:50;;;;;;;9.30;5.40;;;;;;;15.76;63.46;101530.38;4930858;28;100752;-71
2022/11/02 00:35:17;;;;;;;11.00;5.85;;;;;;;15.90;63.20;101539.50;4932380;28;97100;-70
2022/11/02 00:37:43;;;;;;;10.38;5.35;;;;;;;15.65;63.46;101544.19;4932252;28;99135;-70
2022/11/02 00:40:11;;;;;;;10.98;5.75;;;;;;;15.48;64.17;101538.72;4931700;28;98784;-70
2022/11/02 00:42:39;;;;;;;12.10;5.32;;;;;;;15.62;63.64;101546.16;4931677;28;96888;-71
2022/11/02 00:45:07;;;;;;;10.75;5.18;;;;;;;15.69;63.27;101537.78;4931615;28;97767;-72
2022/11/02 00:47:33;;;;;;;8.75;5.20;;;;;;;15.67;63.17;101536.16;4931856;28;99052;-71
2022/11/02 00:50:00;;;;;;;10.15;5.30;;;;;;;15.48;63.42;101536.91;4937641;28;98966;-71
2022/11/02 00:52:26;;;;;;;12.68;5.57;;;;;;;15.63;63.00;101543.38;4935100;28;96817;-71
2022/11/02 00:54:53;;;;;;;10.35;5.05;;;;;;;15.64;63.25;101544.25;4933887;28;96997;-72
2022/11/02 00:57:20;;;;;;;13.23;5.80;;;;;;;15.38;63.49;101545.34;4933605;28;98956;-71
2022/11/02 00:59:47;;;;;;;11.70;5.20;;;;;;;15.52;63.19;101549.19;4938609;28;99233;-71
2022/11/02 01:02:14;;;;;;;9.68;5.20;;;;;;;15.57;62.69;101537.47;4934092;28;96709;-71
2022/11/02 01:04:40;;;;;;;7.78;4.50;;;;;;;15.29;62.90;101535.13;4934483;28;96869;-72
2022/11/02 01:07:07;;;;;;;8.30;5.05;;;;;;;15.52;62.66;101538.53;4936139;28;99679;-71
2022/11/02 01:09:34;;;;;;;11.20;5.25;;;;;;;15.56;62.46;101538.41;4934000;28;98886;-70
2022/11/02 01:12:00;;;;;;;6.35;4.38;;;;;;;15.44;62.71;101537.97;4932061;28;96955;-71
2022/11/02 01:14:27;;;;;;;10.82;4.47;;;;;;;15.57;62.18;101537.47;4932593;28;96879;-71
2022/11/02 01:16:56;;;;;;;7.15;4.70;;;;;;;15.70;61.37;101544.84;4931826;28;99156;-71
2022/11/02 01:19:23;;;;;;;10.32;5.10;;;;;;;15.66;61.39;101545.06;4929327;28;99347;-70
2022/11/02 01:21:49;;;;;;;12.80;4.93;;;;;;;15.16;62.19;101540.09;4928940;28;96825;-70
2022/11/02 01:24:16;;;;;;;5.60;4.22;;;;;;;15.37;61.62;101552.47;4933585;28;96808;-70
2022/11/02 01:26:43;;;;;;;7.07;4.47;;;;;;;15.22;62.22;101541.63;4933446;28;99432;-71
2022/11/02 01:29:10;;;;;;;10.45;4.50;;;;;;;15.28;62.00;101536.91;4931170;28;97808;-70
2022/11/02 01:31:36;;;;;;;8.38;4.18;;;;;;;15.28;61.64;101536.91;4923766;28;97647;-71
2022/11/02 01:34:04;;;;;;;8.82;3.85;;;;;;;15.31;61.51;101542.09;4932521;28;97731;-70
2022/11/02 01:36:30;;;;;;;6.10;3.97;;;;;;;15.14;61.59;101544.59;4932038;28;98913;-71
2022/11/02 01:38:57;;;;;;;9.68;3.72;;;;;;;15.64;60.38;101544.25;4930003;28;98877;-71
2022/11/02 01:41:24;;;;;;;9.23;3.47;;;;;;;15.46;60.29;101535.25;4931760;28;96826;-71
2022/11/02 01:43:55;;;;;;;6.38;3.42;;;;;;;15.40;60.29;101531.06;4931154;28;97650;-70
2022/11/02 01:46:24;;;;;;;8.80;3.50;;;;;;;15.42;60.09;101521.22;4927058;28;98126;-71
2022/11/02 01:48:58;;;;;;;5.47;3.17;;;;;;;15.45;59.74;101528.19;4931514;28;98931;-71
2022/11/02 01:51:30;;;;;;;4.43;3.00;;;;;;;15.37;59.69;101515.19;4930513;28;98488;-70
2022/11/02 01:54:00;;;;;;;7.38;3.70;;;;;;;15.26;59.82;101517.47;4929580;28;97037;-71
2022/11/02 01:56:31;;;;;;;6.68;3.30;;;;;;;15.15;60.01;101517.06;4932825;28;99340;-71
2022/11/02 01:59:01;;;;;;;7.78;3.42;;;;;;;15.24;59.54;101511.31;4930719;28;100573;-70
2022/11/02 02:01:28;;;;;;;6.50;3.05;;;;;;;15.05;60.71;101515.69;4931217;28;96840;-71
2022/11/02 02:03:57;;;;;;;6.80;3.10;;;;;;;15.27;60.02;101518.31;4937066;28;98947;-71
2022/11/02 02:06:24;;;;;;;4.93;3.30;;;;;;;15.36;59.80;101510.78;4933801;28;99422;-70
2022/11/02 02:08:55;;;;;;;5.43;2.95;;;;;;;15.20;59.75;101509.72;4929071;28;98896;-71
2022/11/02 02:11:27;;;;;;;8.15;3.13;;;;;;;15.28;59.49;101510.28;4930965;28;96731;-70
2022/11/02 02:13:55;;;;;;;5.40;3.05;;;;;;;15.13;59.97;101505.59;4926092;28;98500;-71
2022/11/02 02:16:34;;;;;;;9.35;2.70;;;;;;;15.34;58.89;101515.34;4931151;28;99159;-71
2022/11/02 02:19:13;;;;;;;6.70;2.72;;;;;;;15.36;58.63;101505.47;4929095;28;99321;-70
2022/11/02 02:21:47;;;;;;;6.82;2.72;;;;;;;15.09;59.17;101509.34;4927811;28;97317;-71
2022/11/02 02:24:30;;;;;;;6.38;2.53;;;;;;;15.10;59.30;101511.03;4931517;28;96820;-71
2022/11/02 02:27:07;;;;;;;4.15;2.63;;;;;;;15.14;59.05;101502.00;4933087;28;100856;-71
2022/11/02 02:30:03;;;;;;;4.40;2.50;;;;;;;15.13;59.29;101508.25;4929265;28;96929;-70
2022/11/02 02:32:39;;;;;;;6.28;2.47;;;;;;;15.05;59.16;101507.72;4911296;28;98664;-70
2022/11/02 02:35:13;;;;;;;6.30;2.40;;;;;;;15.05;59.18;101497.06;4930165;28;96888;-71
2022/11/02 02:37:48;;;;;;;7.13;2.60;;;;;;;14.90;58.89;101508.38;4925173;28;98938;-71
2022/11/02 02:40:19;;;;;;;4.25;2.38;;;;;;;14.81;59.67;101503.41;4931351;28;98889;-70
2022/11/02 02:42:51;;;;;;;8.48;2.92;;;;;;;14.90;58.99;101505.72;4930806;28;97176;-69
2022/11/02 02:45:26;;;;;;;5.63;2.33;;;;;;;14.90;58.68;101497.72;4931842;28;96836;-71
2022/11/02 02:47:58;;;;;;;9.27;2.50;;;;;;;14.90;58.03;101501.22;4929851;28;98999;-71
2022/11/02 02:50:29;;;;;;;7.75;2.30;;;;;;;14.82;58.56;101499.81;4927956;28;99037;-70
2022/11/02 02:52:58;;;;;;;10.82;2.15;;;;;;;14.87;57.97;101490.72;4927195;28;98982;-71
2022/11/02 02:55:31;;;;;;;3.83;1.88;;;;;;;15.01;57.89;101495.47;4929659;28;98570;-72
2022/11/02 02:58:01;;;;;;;5.97;1.92;;;;;;;15.03;57.59;101493.63;4930470;28;99558;-71
2022/11/02 03:00:33;;;;;;;7.45;2.47;;;;;;;14.96;57.78;101498.34;4931431;28;99268;-71
2022/11/02 03:03:03;;;;;;;5.00;2.10;;;;;;;15.05;57.54;101491.75;4931283;28;97266;-71
2022/11/02 03:05:31;;;;;;;7.30;2.30;;;;;;;14.92;57.84;101503.81;4929364;28;99493;-71
2022/11/02 03:08:03;;;;;;;5.45;2.35;;;;;;;14.95;57.15;101495.72;4924575;28;98944;-71
2022/11/02 03:10:34;;;;;;;7.10;2.17;;;;;;;14.87;57.67;101497.84;4932776;28;98766;-72
2022/11/02 03:13:13;;;;;;;5.80;2.08;;;;;;;14.77;57.98;101495.53;4933568;28;96915;-70
2022/11/02 03:15:44;;;;;;;2.65;1.73;;;;;;;14.80;57.57;101489.25;4936374;28;99002;-71
2022/11/02 03:18:18;;;;;;;8.40;1.95;;;;;;;14.75;57.88;101489.44;4934231;28;99139;-71
2022/11/02 03:20:56;;;;;;;4.32;2.20;;;;;;;14.74;57.83;101490.38;4933520;28;98898;-71
2022/11/02 03:23:29;;;;;;;6.90;1.80;;;;;;;14.88;57.39;101492.47;4933238;28;96872;-70
2022/11/02 03:26:04;;;;;;;10.75;2.47;;;;;;;14.96;57.00;101493.00;4933322;28;96996;-72
2022/11/02 03:28:44;;;;;;;7.82;2.10;;;;;;;14.48;58.07;101495.88;4930055;28;99191;-73
2022/11/02 03:31:15;;;;;;;6.05;2.20;;;;;;;14.77;57.66;101501.81;4933434;28;99115;-71
2022/11/02 03:33:47;;;;;;;7.03;2.72;;;;;;;14.58;57.70;101496.34;4931949;28;99229;-71
2022/11/02 03:36:19;;;;;;;5.78;1.92;;;;;;;14.55;57.77;101497.38;4934169;28;96826;-71
2022/11/02 03:38:52;;;;;;;7.95;2.13;;;;;;;14.56;57.38;101487.59;4930284;28;98198;-71
2022/11/02 03:41:22;;;;;;;9.88;2.22;;;;;;;14.53;57.49;101493.00;4932904;28;99037;-71
2022/11/02 03:43:53;;;;;;;9.68;1.95;;;;;;;14.43;57.55;101497.84;4935523;28;96824;-70
2022/11/02 03:46:23;;;;;;;7.68;1.90;;;;;;;14.40;58.05;101497.97;4931301;28;97507;-70
2022/11/02 03:48:51;;;;;;;5.65;2.00;;;;;;;14.50;57.69;101509.97;4933520;28;99474;-72
2022/11/02 03:51:24;;;;;;;3.60;1.50;;;;;;;14.33;58.11;101504.41;4932779;28;98794;-70
2022/11/02 03:53:56;;;;;;;7.43;2.00;;;;;;;14.29;58.04;101494.81;4928325;28;97066;-69
2022/11/02 03:56:26;;;;;;;4.97;2.03;;;;;;;14.35;58.17;101499.91;4930783;28;96889;-69
2022/11/02 03:58:52;;;;;;;6.93;1.92;;;;;;;14.35;57.72;101498.13;4927461;28;99220;-69
2022/11/02 04:01:21;;;;;;;7.25;2.30;;;;;;;14.38;57.59;101491.81;4926717;28;101547;-69
2022/11/02 04:03:48;;;;;;;7.55;2.13;;;;;;;14.29;57.88;101501.00;4937277;28;96785;-69
2022/11/02 04:06:16;;;;;;;8.63;2.13;;;;;;;14.24;58.26;101496.81;4935680;28;96849;-69
2022/11/02 04:08:46;;;;;;;5.70;2.30;;;;;;;14.18;58.15;101497.88;4928789;28;98964;-70
2022/11/02 04:16:43;;;;;;;4.65;1.90;;;;;;;14.32;57.67;101478.75;4932172;28;97142;-70
2022/11/02 04:19:27;;;;;;;7.15;2.22;;;;;;;14.09;58.18;101482.31;4929307;28;98997;-70
2022/11/02 04:27:22;;;;;;;6.63;2.30;;;;;;;14.24;57.87;101483.53;4932315;28;97503;-69
2022/11/02 04:29:48;;;;;;;8.93;2.30;;;;;;;14.14;57.90;101490.97;4932760;28;99073;-69
2022/11/02 04:33:31;;;;;;;10.48;2.45;;;;;;;14.07;58.10;101481.50;4932522;28;99201;-69
2022/11/02 04:35:01;;;;;;;7.43;2.40;;;;;;;14.06;58.21;101486.84;4926046;28;96850;-68
2022/11/02 04:40:12;;;;;;;5.63;1.80;;;;;;;14.06;57.96;101502.81;4926609;28;97341;-68
2022/11/02 04:42:39;;;;;;;10.02;2.03;;;;;;;14.02;58.20;101493.22;4932589;28;98853;-69
2022/11/02 04:45:06;;;;;;;8.18;2.35;;;;;;;14.00;58.06;101493.28;4932548;28;98437;-69
2022/11/02 04:47:34;;;;;;;8.05;2.00;;;;;;;13.90;58.07;101490.13;4934271;28;96778;-70
2022/11/02 04:50:00;;;;;;;10.73;2.50;;;;;;;14.05;58.10;101501.06;4929027;28;98895;-70
2022/11/02 04:52:26;;;;;;;10.68;1.92;;;;;;;13.88;58.40;101499.94;4929583;28;98948;-68
2022/11/02 04:54:53;;;;;;;10.30;2.70;;;;;;;14.09;57.92;101500.03;4930402;28;96890;-69
2022/11/02 04:57:19;;;;;;;7.88;1.98;;;;;;;13.85;58.63;101496.50;4933224;28;97847;-70
2022/11/02 04:59:48;;;;;;;7.97;2.05;;;;;;;13.70;58.82;101489.97;4933043;28;99461;-68
2022/11/02 05:02:14;;;;;;;9.55;2.00;;;;;;;13.92;58.31;101490.91;4936281;28;98942;-68
2022/11/02 05:04:42;;;;;;;6.80;2.00;;;;;;;13.71;58.77;101507.66;4933350;28;96772;-69
2022/11/02 05:07:10;;;;;;;10.25;1.70;;;;;;;13.77;58.67;101495.94;4933785;28;96809;-68
2022/11/02 05:09:37;;;;;;;7.22;2.00;;;;;;;13.81;58.60;101493.09;4928653;28;99006;-71
2022/11/02 05:12:04;;;;;;;10.40;2.17;;;;;;;13.76;58.47;101487.09;4932331;28;99244;-69
2022/11/02 05:14:30;;;;;;;9.90;2.70;;;;;;;13.75;58.52;101498.66;4931960;28;99177;-69
2022/11/02 05:16:58;;;;;;;9.98;2.13;;;;;;;13.62;58.77;101497.34;4931849;28;96931;-70
2022/11/02 05:19:24;;;;;;;8.77;2.08;;;;;;;13.69;58.83;101493.56;4932454;28;99043;-69
2022/11/02 05:21:52;;;;;;;11.50;2.28;;;;;;;13.64;59.10;101495.53;4933749;28;100294;-69
2022/11/02 05:24:18;;;;;;;9.30;2.47;;;;;;;13.79;58.34;101499.38;4931815;28;98942;-70
2022/11/02 05:26:49;;;;;;;6.88;1.55;;;;;;;13.90;58.41;101499.88;4927227;28;97550;-71
2022/11/02 05:29:16;;;;;;;7.00;1.75;;;;;;;13.77;58.47;101504.78;4931134;28;99390;-70
2022/11/02 05:31:42;;;;;;;8.90;1.85;;;;;;;13.88;58.14;101494.63;4934792;28;98993;-70
2022/11/02 05:34:08;;;;;;;7.03;1.80;;;;;;;13.84;58.20;101487.69;4930797;28;97602;-71
2022/11/02 05:36:35;;;;;;;11.80;2.30;;;;;;;13.68;58.36;101493.59;4931711;28;97163;-70
2022/11/02 05:39:02;;;;;;;8.65;1.95;;;;;;;13.85;58.03;101494.72;4932296;28;99169;-71
2022/11/02 05:41:29;;;;;;;13.13;1.90;;;;;;;14.05;57.69;101493.09;4932574;28;98968;-70
2022/11/02 05:43:57;;;;;;;5.57;1.80;;;;;;;13.94;57.59;101501.47;4929095;28;96943;-71
2022/11/02 05:46:23;;;;;;;4.82;1.77;;;;;;;14.05;57.28;101509.03;4926549;28;96857;-70
2022/11/02 05:48:50;;;;;;;8.25;1.63;;;;;;;13.90;57.47;101508.72;4932814;28;97744;-71
2022/11/02 05:51:16;;;;;;;7.40;1.98;;;;;;;13.81;57.88;101489.56;4931171;28;98805;-71
2022/11/02 05:53:43;;;;;;;7.55;1.77;;;;;;;13.75;57.82;101492.47;4931478;28;97548;-71
2022/11/02 05:56:12;;;;;;;8.60;2.13;;;;;;;13.74;58.10;101494.25;4933387;28;97112;-71
2022/11/02 05:58:38;;;;;;;10.70;2.20;;;;;;;13.70;58.29;101494.44;4926846;28;98560;-70
2022/11/02 06:01:07;;;;;;;7.20;2.00;;;;;;;13.67;58.29;101484.78;4928393;28;98823;-70
2022/11/02 06:03:34;;;;;;;15.07;1.48;;;;;;;13.93;57.67;101492.63;4928563;28;97342;-71
2022/11/02 06:06:03;;;;;;;12.90;2.13;;;;;;;13.92;57.40;101496.22;4925584;28;97002;-71
2022/11/02 06:08:32;;;;;;;8.52;1.75;;;;;;;13.78;57.77;101498.53;4923972;28;99231;-71
2022/11/02 06:10:58;;;;;;;13.02;2.08;;;;;;;13.76;57.53;101497.72;4926298;28;98965;-71
2022/11/02 06:13:26;;;;;;;8.98;1.92;;;;;;;13.76;58.03;101499.50;4924813;28;97642;-71
2022/11/02 06:15:52;;;;;;;8.43;1.92;;;;;;;13.82;57.72;101494.84;4927371;28;97916;-71
2022/11/02 06:18:19;;;;;;;16.13;2.25;;;;;;;13.77;57.96;101493.28;4930952;28;99034;-71
2022/11/02 06:20:45;;;;;;;8.98;2.08;;;;;;;13.81;57.94;101482.47;4925135;28;99460;-70
2022/11/02 06:23:13;;;;;;;12.40;1.92;;;;;;;13.78;57.62;101492.38;4930071;28;97339;-70
2022/11/02 06:25:39;;;;;;;17.13;2.60;;;;;;;13.78;57.65;101495.88;4932885;28;96912;-71
2022/11/02 06:28:06;;;;;;;9.65;1.73;;;;;;;13.92;57.39;101490.91;4926764;28;99584;-70
2022/11/02 06:30:34;;;;;;;9.07;2.42;;;;;;;13.89;57.35;101499.00;4932823;28;97769;-71
2022/11/02 06:33:00;;;;;;;9.05;1.67;;;;;;;13.98;57.11;101503.94;4929538;28;96981;-70
2022/11/02 06:35:29;;;;;;;11.07;2.00;;;;;;;14.14;56.51;101503.38;4933081;28;97123;-71
2022/11/02 06:37:55;;;;;;;11.40;2.33;;;;;;;14.17;56.71;101505.94;4930896;28;98894;-70
2022/11/02 06:40:22;;;;;;;8.88;1.83;;;;;;;14.14;56.31;101501.59;4927171;28;98184;-70
2022/11/02 06:42:48;;;;;;;11.32;1.70;;;;;;;14.21;56.38;101504.88;4932392;28;96879;-71
2022/11/02 06:45:15;;;;;;;9.60;1.58;;;;;;;14.17;56.54;101512.13;4939737;28;97183;-72
2022/11/02 06:47:43;;;;;;;7.35;1.70;;;;;;;14.38;56.01;101520.19;4934356;28;99044;-71
2022/11/02 06:50:10;;;;;;;9.57;2.38;;;;;;;14.23;56.27;101521.66;4935314;28;97822;-70
2022/11/02 06:52:42;;;;;;;5.80;1.75;;;;;;;14.32;56.05;101527.47;4935693;28;97101;-70
2022/11/02 06:55:09;;;;;;;11.27;1.85;;;;;;;14.41;55.83;101520.09;4935759;28;97399;-70
2022/11/02 06:57:36;;;;;;;7.85;2.28;;;;;;;14.31;55.89;101522.19;4932777;28;99198;-69
2022/11/02 07:00:04;;;;;;;7.93;1.80;;;;;;;14.39;55.84;101520.16;4935898;28;97955;-72
2022/11/02 07:02:30;;;;;;;11.35;1.67;;;;;;;14.23;56.23;101516.34;4928961;28;97600;-70
2022/11/02 07:04:58;;;;;;;7.43;1.75;;;;;;;14.27;56.21;101525.91;4930825;28;97416;-71
2022/11/02 07:07:25;;;;;;;13.98;1.70;;;;;;;14.39;56.04;101528.13;4929263;28;99754;-71
2022/11/02 07:09:52;;;;;;;14.90;2.13;;;;;;;14.47;55.72;101534.03;4931815;28;98843;-71
2022/11/02 07:12:18;;;;;;;7.07;2.05;;;;;;;14.36;55.92;101528.22;4930114;28;97156;-71
2022/11/02 07:14:45;;;;;;;10.90;2.28;;;;;;;14.48;55.74;101522.47;4931103;28;97532;-71
2022/11/02 07:17:11;;;;;;;9.60;1.70;;;;;;;14.61;55.26;101530.81;4931121;28;99518;-69
2022/11/02 07:19:38;;;;;;;9.23;1.75;;;;;;;14.38;55.92;101518.41;4929494;28;99871;-70
2022/11/02 07:22:05;;;;;;;7.38;1.70;;;;;;;14.54;55.72;101516.03;4931435;28;96954;-70
2022/11/02 07:24:32;;;;;;;10.30;1.77;;;;;;;14.65;55.57;101525.31;4931085;28;97338;-71
2022/11/02 07:26:59;;;;;;;10.88;1.95;;;;;;;14.82;55.14;101521.97;4930381;28;99198;-71
2022/11/02 07:29:25;;;;;;;7.45;2.25;;;;;;;14.82;54.92;101521.13;4929060;28;99048;-70
2022/11/02 07:31:52;;;;;;;8.35;1.98;;;;;;;14.91;54.86;101518.06;4932657;28;96858;-71
2022/11/02 07:34:20;;;;;;;5.22;1.60;;;;;;;14.74;54.94;101532.94;4930656;28;97342;-71
2022/11/02 07:36:46;;;;;;;8.90;1.92;;;;;;;15.21;54.20;101521.25;4931103;28;98337;-71
2022/11/02 07:39:14;;;;;;;9.63;2.10;;;;;;;15.15;53.97;101525.03;4931709;28;97349;-71
2022/11/02 07:41:41;;;;;;;9.57;1.83;;;;;;;15.35;53.65;101534.84;4931252;28;97293;-70
2022/11/02 07:44:07;;;;;;;13.93;1.98;;;;;;;15.22;53.97;101525.66;4931271;28;96958;-71
2022/11/02 07:46:34;;;;;;;11.18;1.75;;;;;;;15.41;53.31;101543.44;4926406;28;98925;-72
2022/11/02 07:49:00;;;;;;;8.85;1.90;;;;;;;15.79;52.74;101538.25;4931034;28;97793;-72
2022/11/02 07:51:27;;;;;;;12.65;2.40;;;;;;;15.89;52.44;101524.44;4931915;28;96803;-71
2022/11/02 07:53:54;;;;;;;6.45;1.60;;;;;;;15.90;52.24;101536.84;4930622;28;97073;-70
2022/11/02 07:56:22;;;;;;;8.80;2.03;;;;;;;15.92;52.16;101528.78;4930626;28;98111;-70
2022/11/02 07:58:48;;;;;;;9.07;1.80;;;;;;;15.95;52.06;101539.28;4930702;28;98210;-71
2022/11/02 08:01:15;;;;;;;9.40;1.83;;;;;;;16.21;51.58;101544.28;4931953;28;96849;-70
2022/11/02 08:03:41;;;;;;;9.85;2.17;;;;;;;15.92;52.27;101528.78;4928697;28;97741;-70
2022/11/02 08:06:08;;;;;;;15.73;2.25;;;;;;;16.17;52.00;101537.38;4930726;28;98912;-70
2022/11/02 08:08:36;;;;;;;9.10;2.15;;;;;;;16.10;52.00;101543.94;4931057;28;98924;-72
2022/11/02 08:11:05;;;;;;;11.23;2.22;;;;;;;16.29;51.48;101539.47;4930463;28;97019;-70
2022/11/02 08:13:33;;;;;;;14.68;1.75;;;;;;;16.44;51.33;101547.69;4931260;28;97116;-71
2022/11/02 08:16:00;;;;;;;8.45;2.13;;;;;;;16.38;51.12;101540.00;4929778;28;101159;-72
2022/11/02 08:18:28;;;;;;;12.30;2.05;;;;;;;16.28;51.30;101531.53;4928854;28;97438;-72
2022/11/02 08:20:57;;;;;;;14.45;2.20;;;;;;;16.44;51.26;101526.38;4929106;28;96927;-70
2022/11/02 08:23:24;;;;;;;7.88;1.60;;;;;;;16.52;50.96;101533.06;4930762;28;96878;-71
2022/11/02 08:25:52;;;;;;;7.88;1.77;;;;;;;16.31;51.45;101540.28;4929967;28;99069;-71
2022/11/02 08:28:22;;;;;;;7.55;1.83;;;;;;;16.57;51.09;101539.03;4929612;28;99328;-71
2022/11/02 08:30:50;;;;;;;10.02;2.05;;;;;;;16.59;51.06;101542.53;4929602;28;97697;-70
2022/11/02 08:33:19;;;;;;;5.30;1.73;;;;;;;16.51;51.17;101543.81;4930212;28;97231;-71
2022/11/02 08:35:47;;;;;;;9.45;1.83;;;;;;;16.66;50.90;101546.66;4925705;28;99085;-72
2022/11/02 08:38:14;;;;;;;6.80;2.00;;;;;;;16.69;51.19;101553.63;4928516;28;99213;-70
2022/11/02 08:40:41;;;;;;;11.23;1.67;;;;;;;16.67;51.16;101551.03;4930991;28;97227;-71
2022/11/02 08:43:09;;;;;;;10.35;2.30;;;;;;;16.84;50.79;101547.56;4928339;28;98346;-71
2022/11/02 08:45:38;;;;;;;6.18;1.83;;;;;;;16.71;51.25;101543.75;4929881;28;99255;-71
2022/11/02 08:48:07;;;;;;;12.07;1.95;;;;;;;16.50;52.00;101550.09;4928610;28;101721;-71
2022/11/02 08:50:35;;;;;;;10.05;2.10;;;;;;;16.76;51.62;101539.06;4931005;28;96964;-70
2022/11/02 08:53:01;;;;;;;11.00;2.47;;;;;;;16.44;52.29;101542.38;4929463;28;97459;-70
2022/11/02 08:55:28;;;;;;;11.07;1.63;;;;;;;16.28;52.68;101542.22;4926647;28;99303;-71
2022/11/02 08:57:56;;;;;;;10.32;2.20;;;;;;;16.42;52.60;101539.75;4927139;28;99258;-70
2022/11/02 09:00:25;;;;;;;13.85;2.05;;;;;;;16.28;52.97;101545.75;4930364;28;97362;-73
2022/11/02 09:02:59;;;;;;;12.93;1.65;;;;;;;16.26;52.93;101542.31;4918634;28;98734;-73
2022/11/02 09:05:27;;;;;;;11.48;1.90;;;;;;;16.44;52.76;101545.03;4927370;28;98960;-71
2022/11/02 09:07:55;;;;;;;11.57;2.10;;;;;;;16.56;52.33;101541.78;4922545;28;98705;-72
2022/11/02 09:10:21;;;;;;;14.07;2.30;;;;;;;16.47;52.86;101547.56;4930347;28;97268;-71
2022/11/02 09:12:47;;;;;;;11.88;2.08;;;;;;;16.44;52.80;101545.91;4930205;28;99588;-71
2022/11/02 09:15:14;;;;;;;9.38;1.88;;;;;;;16.87;52.09;101547.41;4929514;28;101201;-72
2022/11/02 09:17:41;;;;;;;8.45;1.75;;;;;;;16.84;51.81;101541.34;4930647;28;98859;-72
2022/11/02 09:20:08;;;;;;;11.60;1.95;;;;;;;17.19;51.19;101548.50;4930329;28;99740;-72
2022/11/02 09:22:36;;;;;;;6.05;2.00;;;;;;;17.31;50.90;101547.00;4929676;28;96982;-71
2022/11/02 09:25:03;;;;;;;12.02;1.90;;;;;;;17.25;51.31;101552.66;4926643;28;97420;-72
2022/11/02 09:27:29;;;;;;;16.83;2.35;;;;;;;17.27;50.93;101550.75;4929391;28;98830;-73
2022/11/02 09:29:56;;;;;;;10.63;2.13;;;;;;;17.52;50.36;101551.25;4931312;28;98022;-71
2022/11/02 09:32:23;;;;;;;10.25;2.22;;;;;;;17.60;50.21;101551.69;4929870;28;97618;-71
2022/11/02 09:34:50;;;;;;;13.60;2.25;;;;;;;17.68;49.87;101544.19;4929671;28;101250;-73
2022/11/02 09:37:17;;;;;;;10.75;2.03;;;;;;;17.78;49.92;101540.09;4926512;28;100346;-71
2022/11/02 09:39:45;;;;;;;14.73;2.55;;;;;;;17.93;49.65;101549.97;4930965;28;97215;-71
2022/11/02 09:42:20;;;;;;;17.88;2.03;;;;;;;17.98;49.37;101559.56;4925902;28;97188;-71
2022/11/02 09:44:51;;;;;;;12.57;1.80;;;;;;;18.05;48.93;101553.78;4928791;28;103422;-71
2022/11/02 09:47:19;;;;;;;16.05;2.00;;;;;;;18.19;48.69;101545.88;4929496;28;97641;-73
2022/11/02 09:49:46;;;;;;;7.75;1.60;;;;;;;18.26;48.68;101554.44;4932564;28;96878;-72
2022/11/02 09:52:22;;;;;;;13.52;2.10;;;;;;;18.16;48.14;101547.88;4931797;28;97383;-71
2022/11/02 09:54:54;;;;;;;13.00;2.23;;;;;;;18.07;48.13;101559.06;4928306;28;99404;-73
2022/11/02 09:57:27;;;;;;;12.65;2.00;;;;;;;18.07;47.86;101553.72;4926946;28;100969;-72
2022/11/02 09:59:54;;;;;;;7.35;1.60;;;;;;;18.14;47.48;101552.44;4927941;28;96924;-71
2022/11/02 10:02:30;;;;;;;9.70;1.25;;;;;;;18.22;47.69;101559.09;4930265;28;97072;-72
2022/11/02 10:05:14;;;;;;;12.52;1.83;;;;;;;18.19;47.18;101547.69;4925210;28;100559;-71
2022/11/02 10:08:03;;;;;;;7.80;1.40;;;;;;;18.15;47.37;101549.69;4929479;28;98969;-74
2022/11/02 10:10:37;;;;;;;11.15;1.50;;;;;;;18.17;47.07;101571.00;4929408;28;96864;-71
2022/11/02 10:13:15;;;;;;;11.95;1.75;;;;;;;18.19;47.25;101550.38;4926295;28;97466;-71
2022/11/02 10:15:47;;;;;;;11.35;1.80;;;;;;;18.43;46.57;101559.75;4925389;28;101339;-72
2022/11/02 10:18:19;;;;;;;11.77;2.10;;;;;;;18.14;47.12;101549.75;4927597;28;100823;-72
2022/11/02 10:20:48;;;;;;;8.73;1.23;;;;;;;18.39;47.40;101560.84;4933026;28;96784;-71
2022/11/02 10:23:19;;;;;;;8.77;1.90;;;;;;;18.71;46.15;101557.25;4932948;28;96939;-72
2022/11/02 10:25:47;;;;;;;8.02;1.13;;;;;;;18.55;46.29;101551.06;4932077;28;99225;-71
2022/11/02 10:28:18;;;;;;;5.65;1.13;;;;;;;18.56;45.98;101559.97;4923312;28;98889;-73
2022/11/02 10:30:45;;;;;;;12.65;2.20;;;;;;;18.49;46.60;101556.72;4933352;28;97555;-72
2022/11/02 10:33:14;;;;;;;11.90;1.80;;;;;;;18.71;46.23;101559.06;4929992;28;98574;-71
2022/11/02 10:35:51;;;;;;;11.27;1.73;;;;;;;18.85;46.02;101553.81;4933031;28;98985;-71
2022/11/02 10:38:31;;;;;;;12.18;1.50;;;;;;;19.00;45.07;101558.28;4933344;28;98181;-71
2022/11/02 10:41:27;;;;;;;11.43;2.75;;;;;;;18.94;44.89;101558.66;4933594;28;97701;-72
2022/11/02 10:44:07;;;;;;;8.60;1.73;;;;;;;18.44;45.48;101557.94;4930239;28;97609;-71
2022/11/02 10:46:48;;;;;;;7.55;1.65;;;;;;;18.11;45.48;101549.94;4930902;28;100507;-72
2022/11/02 10:49:31;;;;;;;8.68;1.75;;;;;;;18.40;45.36;101557.22;4929693;28;99575;-72
2022/11/02 10:51:58;;;;;;;13.43;1.65;;;;;;;18.12;45.35;101557.84;4933397;28;97126;-72
2022/11/02 10:54:25;;;;;;;11.65;1.88;;;;;;;18.21;44.31;101551.16;4932630;28;97155;-72
2022/11/02 10:56:56;;;;;;;15.90;1.80;;;;;;;17.98;45.04;101578.28;4932424;28;98878;-71
2022/11/02 10:59:22;;;;;;;10.73;1.75;;;;;;;18.07;44.87;101564.41;4933803;28;99140;-71
2022/11/02 11:02:06;;;;;;;11.80;1.80;;;;;;;18.03;45.19;101562.84;4933928;28;96901;-72
2022/11/02 11:04:34;;;;;;;10.18;1.65;;;;;;;18.36;44.93;101569.06;4932803;28;99069;-72
2022/11/02 11:07:06;;;;;;;9.70;1.23;;;;;;;18.50;44.59;101574.50;4930709;28;99429;-72
2022/11/02 11:09:38;;;;;;;11.77;1.73;;;;;;;18.29;44.64;101559.63;4929868;28;98144;-71
2022/11/02 11:12:13;;;;;;;12.18;2.22;;;;;;;18.50;44.48;101579.88;4933351;28;97114;-72
2022/11/02 11:14:47;;;;;;;13.37;2.00;;;;;;;18.47;44.04;101580.03;4931576;28;97214;-72
2022/11/02 11:17:17;;;;;;;9.48;1.38;;;;;;;18.63;44.07;101580.09;4932085;28;98924;-72
2022/11/02 11:19:50;;;;;;;10.90;2.20;;;;;;;18.70;43.65;101581.47;4931188;28;99136;-71
2022/11/02 11:22:25;;;;;;;9.77;1.70;;;;;;;18.98;43.23;101586.09;4931270;28;96947;-72
2022/11/02 11:24:52;;;;;;;6.65;1.42;;;;;;;18.97;43.44;101589.75;4928504;28;97981;-71
2022/11/02 11:27:21;;;;;;;6.82;1.85;;;;;;;18.88;44.03;101595.63;4927620;28;99630;-73
2022/11/02 11:29:52;;;;;;;7.35;1.65;;;;;;;18.77;43.84;101595.38;4930907;28;101284;-72
2022/11/02 11:32:21;;;;;;;8.65;1.70;;;;;;;18.65;44.21;101592.41;4933709;28;97290;-74
2022/11/02 11:34:55;;;;;;;11.77;1.58;;;;;;;18.93;43.65;101590.88;4933656;28;97071;-72
2022/11/02 11:37:24;;;;;;;9.77;1.63;;;;;;;18.64;43.93;101595.19;4930861;28;99022;-73
2022/11/02 11:39:53;;;;;;;5.28;1.23;;;;;;;18.52;44.33;101596.69;4933166;28;101264;-72
2022/11/02 11:42:24;;;;;;;15.27;1.75;;;;;;;18.45;44.67;101589.06;4926975;28;98519;-71
2022/11/02 11:44:57;;;;;;;7.60;1.73;;;;;;;18.54;44.44;101591.25;4931040;28;96930;-72